Admire, Kansas
Current Conditions -  °F | °C
As of 9:53 AM on Friday 19 Dec 2014 (Local Time) from KEMP Reporting Station
Overcast Overcast  
Wind Chill: 29°   Ceiling: 1200
Heat Index: 29°   Visibility: 10mi
Dew Point: 27°   Wind: 3mph
Humidity: 92%   Direction: 150°SSE
Pressure: 30.27"   Gusts: NA
Location:  38.64°N, 96.1°W
Report Text: KEMP 191553Z AUTO 15003KT 10SM FEW005 OVC012 M02/M03 A3027 RMK AO2 SLP266 T10171028
Loading
Personal Weather Stations






























Interactive Weather Map New forecast layout! Learn more

10-Day Weather Forecast

Advertisements
Track Severe Weather on mobile